sensor_id;sensor_type;location;lat;lon;timestamp;P1;durP1;ratioP1;P2;durP2;ratioP2
51146;SDS011;37207;53.060;18.726;2023-07-24T00:02:24;6.40;;;5.80;;
51146;SDS011;37207;53.060;18.726;2023-07-24T00:04:50;5.80;;;5.40;;
51146;SDS011;37207;53.060;18.726;2023-07-24T00:07:17;7.10;;;5.10;;
51146;SDS011;37207;53.060;18.726;2023-07-24T00:09:43;7.80;;;6.00;;
51146;SDS011;37207;53.060;18.726;2023-07-24T00:12:10;14.70;;;12.40;;
51146;SDS011;37207;53.060;18.726;2023-07-24T00:14:37;21.30;;;18.20;;
51146;SDS011;37207;53.060;18.726;2023-07-24T00:17:03;36.50;;;27.30;;
51146;SDS011;37207;53.060;18.726;2023-07-24T00:19:30;49.50;;;32.10;;
51146;SDS011;37207;53.060;18.726;2023-07-24T00:21:56;51.90;;;32.80;;
51146;SDS011;37207;53.060;18.726;2023-07-24T00:24:23;42.30;;;31.40;;
51146;SDS011;37207;53.060;18.726;2023-07-24T00:26:50;37.10;;;28.80;;
51146;SDS011;37207;53.060;18.726;2023-07-24T00:29:18;38.40;;;28.80;;
51146;SDS011;37207;53.060;18.726;2023-07-24T00:31:44;41.00;;;28.40;;
51146;SDS011;37207;53.060;18.726;2023-07-24T00:34:11;37.00;;;27.30;;
51146;SDS011;37207;53.060;18.726;2023-07-24T00:36:40;45.30;;;29.90;;
51146;SDS011;37207;53.060;18.726;2023-07-24T00:39:06;45.90;;;33.80;;
51146;SDS011;37207;53.060;18.726;2023-07-24T00:41:33;64.40;;;42.20;;
51146;SDS011;37207;53.060;18.726;2023-07-24T00:44:00;97.10;;;62.90;;
51146;SDS011;37207;53.060;18.726;2023-07-24T00:46:27;106.10;;;71.40;;
51146;SDS011;37207;53.060;18.726;2023-07-24T00:48:58;99.00;;;66.30;;
51146;SDS011;37207;53.060;18.726;2023-07-24T00:53:58;75.40;;;52.20;;
51146;SDS011;37207;53.060;18.726;2023-07-24T00:56:28;62.40;;;41.50;;
51146;SDS011;37207;53.060;18.726;2023-07-24T00:58:56;47.60;;;34.80;;
51146;SDS011;37207;53.060;18.726;2023-07-24T01:01:24;38.70;;;28.30;;
51146;SDS011;37207;53.060;18.726;2023-07-24T01:03:51;32.10;;;20.80;;
51146;SDS011;37207;53.060;18.726;2023-07-24T01:06:18;15.20;;;13.30;;
51146;SDS011;37207;53.060;18.726;2023-07-24T01:08:45;10.20;;;8.90;;
51146;SDS011;37207;53.060;18.726;2023-07-24T01:11:15;8.10;;;7.10;;
51146;SDS011;37207;53.060;18.726;2023-07-24T01:13:51;13.80;;;8.30;;
51146;SDS011;37207;53.060;18.726;2023-07-24T01:16:25;8.70;;;8.00;;
51146;SDS011;37207;53.060;18.726;2023-07-24T01:18:57;9.90;;;8.90;;
51146;SDS011;37207;53.060;18.726;2023-07-24T01:21:29;9.20;;;8.30;;
51146;SDS011;37207;53.060;18.726;2023-07-24T01:26:40;27.50;;;20.80;;
51146;SDS011;37207;53.060;18.726;2023-07-24T01:29:08;20.40;;;16.80;;
51146;SDS011;37207;53.060;18.726;2023-07-24T01:31:34;16.40;;;12.80;;
51146;SDS011;37207;53.060;18.726;2023-07-24T01:34:01;9.60;;;8.40;;
51146;SDS011;37207;53.060;18.726;2023-07-24T01:36:27;8.40;;;6.80;;
51146;SDS011;37207;53.060;18.726;2023-07-24T01:38:54;6.00;;;5.40;;
51146;SDS011;37207;53.060;18.726;2023-07-24T01:41:21;6.20;;;5.00;;
51146;SDS011;37207;53.060;18.726;2023-07-24T01:43:48;5.50;;;5.00;;
51146;SDS011;37207;53.060;18.726;2023-07-24T01:46:15;4.60;;;4.20;;
51146;SDS011;37207;53.060;18.726;2023-07-24T01:48:43;4.80;;;4.40;;
51146;SDS011;37207;53.060;18.726;2023-07-24T01:51:09;4.50;;;4.20;;
51146;SDS011;37207;53.060;18.726;2023-07-24T01:53:36;4.90;;;4.50;;
51146;SDS011;37207;53.060;18.726;2023-07-24T01:56:03;8.80;;;7.90;;
51146;SDS011;37207;53.060;18.726;2023-07-24T01:58:29;25.70;;;21.10;;
51146;SDS011;37207;53.060;18.726;2023-07-24T02:00:56;72.10;;;51.00;;
51146;SDS011;37207;53.060;18.726;2023-07-24T02:03:23;86.40;;;56.70;;
51146;SDS011;37207;53.060;18.726;2023-07-24T02:05:50;72.00;;;48.80;;
51146;SDS011;37207;53.060;18.726;2023-07-24T02:08:17;64.50;;;40.70;;
51146;SDS011;37207;53.060;18.726;2023-07-24T02:10:47;36.20;;;25.30;;
51146;SDS011;37207;53.060;18.726;2023-07-24T02:13:16;27.00;;;17.30;;
51146;SDS011;37207;53.060;18.726;2023-07-24T02:15:48;13.90;;;12.50;;
51146;SDS011;37207;53.060;18.726;2023-07-24T02:18:14;10.70;;;9.70;;
51146;SDS011;37207;53.060;18.726;2023-07-24T02:20:41;10.30;;;8.70;;
51146;SDS011;37207;53.060;18.726;2023-07-24T02:23:08;15.70;;;8.40;;
51146;SDS011;37207;53.060;18.726;2023-07-24T02:25:35;8.40;;;7.40;;
51146;SDS011;37207;53.060;18.726;2023-07-24T02:28:02;12.60;;;7.80;;
51146;SDS011;37207;53.060;18.726;2023-07-24T02:30:29;9.10;;;7.70;;
51146;SDS011;37207;53.060;18.726;2023-07-24T02:32:56;15.80;;;6.70;;
51146;SDS011;37207;53.060;18.726;2023-07-24T02:35:23;8.10;;;7.40;;
51146;SDS011;37207;53.060;18.726;2023-07-24T02:37:50;9.30;;;7.10;;
51146;SDS011;37207;53.060;18.726;2023-07-24T02:40:18;9.40;;;7.30;;
51146;SDS011;37207;53.060;18.726;2023-07-24T02:43:02;9.70;;;8.00;;
51146;SDS011;37207;53.060;18.726;2023-07-24T02:46:00;11.70;;;8.10;;
51146;SDS011;37207;53.060;18.726;2023-07-24T02:48:28;9.00;;;8.10;;
51146;SDS011;37207;53.060;18.726;2023-07-24T02:50:55;10.00;;;8.10;;
51146;SDS011;37207;53.060;18.726;2023-07-24T02:53:27;9.70;;;6.90;;
51146;SDS011;37207;53.060;18.726;2023-07-24T02:55:58;9.40;;;7.00;;
51146;SDS011;37207;53.060;18.726;2023-07-24T02:58:28;7.00;;;6.50;;
51146;SDS011;37207;53.060;18.726;2023-07-24T03:01:10;10.40;;;6.40;;
51146;SDS011;37207;53.060;18.726;2023-07-24T03:03:40;13.20;;;9.80;;
51146;SDS011;37207;53.060;18.726;2023-07-24T03:06:07;9.50;;;8.50;;
51146;SDS011;37207;53.060;18.726;2023-07-24T03:08:34;8.40;;;7.90;;
51146;SDS011;37207;53.060;18.726;2023-07-24T03:11:04;7.90;;;6.60;;
51146;SDS011;37207;53.060;18.726;2023-07-24T03:13:31;8.40;;;6.20;;
51146;SDS011;37207;53.060;18.726;2023-07-24T03:15:58;10.00;;;6.50;;
51146;SDS011;37207;53.060;18.726;2023-07-24T03:18:25;7.40;;;6.50;;
51146;SDS011;37207;53.060;18.726;2023-07-24T03:20:52;7.30;;;6.70;;
51146;SDS011;37207;53.060;18.726;2023-07-24T03:23:18;7.90;;;7.00;;
51146;SDS011;37207;53.060;18.726;2023-07-24T03:25:46;14.40;;;6.30;;
51146;SDS011;37207;53.060;18.726;2023-07-24T03:28:13;7.20;;;6.50;;
51146;SDS011;37207;53.060;18.726;2023-07-24T03:30:40;6.60;;;6.00;;
51146;SDS011;37207;53.060;18.726;2023-07-24T03:33:09;8.50;;;5.70;;
51146;SDS011;37207;53.060;18.726;2023-07-24T03:35:47;14.80;;;6.20;;
51146;SDS011;37207;53.060;18.726;2023-07-24T03:38:14;10.30;;;6.00;;
51146;SDS011;37207;53.060;18.726;2023-07-24T03:40:43;14.80;;;6.30;;
51146;SDS011;37207;53.060;18.726;2023-07-24T03:43:10;9.80;;;7.90;;
51146;SDS011;37207;53.060;18.726;2023-07-24T03:45:37;8.60;;;7.90;;
51146;SDS011;37207;53.060;18.726;2023-07-24T03:48:04;9.90;;;7.70;;
51146;SDS011;37207;53.060;18.726;2023-07-24T03:50:31;7.20;;;6.60;;
51146;SDS011;37207;53.060;18.726;2023-07-24T03:52:58;12.60;;;8.20;;
51146;SDS011;37207;53.060;18.726;2023-07-24T03:55:27;9.20;;;8.20;;
51146;SDS011;37207;53.060;18.726;2023-07-24T03:57:54;9.70;;;8.70;;
51146;SDS011;37207;53.060;18.726;2023-07-24T04:00:21;10.70;;;8.00;;
51146;SDS011;37207;53.060;18.726;2023-07-24T04:02:47;8.10;;;7.40;;
51146;SDS011;37207;53.060;18.726;2023-07-24T04:05:14;6.20;;;5.60;;
51146;SDS011;37207;53.060;18.726;2023-07-24T04:07:44;6.50;;;5.50;;
51146;SDS011;37207;53.060;18.726;2023-07-24T04:10:17;5.60;;;5.20;;
51146;SDS011;37207;53.060;18.726;2023-07-24T04:13:03;9.90;;;6.60;;
51146;SDS011;37207;53.060;18.726;2023-07-24T04:15:51;9.90;;;6.30;;
51146;SDS011;37207;53.060;18.726;2023-07-24T04:18:38;6.70;;;6.10;;
51146;SDS011;37207;53.060;18.726;2023-07-24T04:21:05;11.30;;;6.30;;
51146;SDS011;37207;53.060;18.726;2023-07-24T04:23:58;12.10;;;5.50;;
51146;SDS011;37207;53.060;18.726;2023-07-24T04:26:24;7.00;;;5.70;;
51146;SDS011;37207;53.060;18.726;2023-07-24T04:28:51;6.00;;;5.30;;
51146;SDS011;37207;53.060;18.726;2023-07-24T04:31:17;5.70;;;5.00;;
51146;SDS011;37207;53.060;18.726;2023-07-24T04:33:44;5.80;;;5.10;;
51146;SDS011;37207;53.060;18.726;2023-07-24T04:36:10;8.60;;;5.20;;
51146;SDS011;37207;53.060;18.726;2023-07-24T04:38:58;6.10;;;5.40;;
51146;SDS011;37207;53.060;18.726;2023-07-24T04:41:32;14.00;;;5.70;;
51146;SDS011;37207;53.060;18.726;2023-07-24T04:44:35;10.10;;;5.50;;
51146;SDS011;37207;53.060;18.726;2023-07-24T04:47:02;8.30;;;5.60;;
51146;SDS011;37207;53.060;18.726;2023-07-24T04:49:29;16.00;;;5.10;;
51146;SDS011;37207;53.060;18.726;2023-07-24T04:51:57;10.20;;;5.30;;
51146;SDS011;37207;53.060;18.726;2023-07-24T04:54:25;8.90;;;4.60;;
51146;SDS011;37207;53.060;18.726;2023-07-24T04:56:51;8.20;;;5.60;;
51146;SDS011;37207;53.060;18.726;2023-07-24T04:59:18;6.50;;;5.10;;
51146;SDS011;37207;53.060;18.726;2023-07-24T05:01:46;6.60;;;5.20;;
51146;SDS011;37207;53.060;18.726;2023-07-24T05:04:14;9.20;;;5.30;;
51146;SDS011;37207;53.060;18.726;2023-07-24T05:06:41;5.30;;;4.90;;
51146;SDS011;37207;53.060;18.726;2023-07-24T05:09:07;5.50;;;5.00;;
51146;SDS011;37207;53.060;18.726;2023-07-24T05:11:34;9.60;;;5.00;;
51146;SDS011;37207;53.060;18.726;2023-07-24T05:14:00;6.40;;;4.70;;
51146;SDS011;37207;53.060;18.726;2023-07-24T05:16:27;9.30;;;5.80;;
51146;SDS011;37207;53.060;18.726;2023-07-24T05:18:54;6.00;;;5.40;;
51146;SDS011;37207;53.060;18.726;2023-07-24T05:21:20;5.00;;;4.50;;
51146;SDS011;37207;53.060;18.726;2023-07-24T05:23:47;8.10;;;5.50;;
51146;SDS011;37207;53.060;18.726;2023-07-24T05:26:13;8.40;;;5.40;;
51146;SDS011;37207;53.060;18.726;2023-07-24T05:28:40;12.30;;;5.70;;
51146;SDS011;37207;53.060;18.726;2023-07-24T05:31:07;7.20;;;6.50;;
51146;SDS011;37207;53.060;18.726;2023-07-24T05:33:34;9.00;;;5.90;;
51146;SDS011;37207;53.060;18.726;2023-07-24T05:36:01;5.90;;;5.10;;
51146;SDS011;37207;53.060;18.726;2023-07-24T05:38:29;6.30;;;5.40;;
51146;SDS011;37207;53.060;18.726;2023-07-24T05:40:57;11.40;;;6.40;;
51146;SDS011;37207;53.060;18.726;2023-07-24T05:43:25;10.70;;;6.30;;
51146;SDS011;37207;53.060;18.726;2023-07-24T05:45:53;6.50;;;5.70;;
51146;SDS011;37207;53.060;18.726;2023-07-24T05:48:21;7.70;;;6.00;;
51146;SDS011;37207;53.060;18.726;2023-07-24T05:50:48;11.50;;;6.30;;
51146;SDS011;37207;53.060;18.726;2023-07-24T05:53:15;7.20;;;6.60;;
51146;SDS011;37207;53.060;18.726;2023-07-24T05:55:42;12.50;;;6.10;;
51146;SDS011;37207;53.060;18.726;2023-07-24T05:58:09;7.00;;;6.10;;
51146;SDS011;37207;53.060;18.726;2023-07-24T06:00:36;11.70;;;6.60;;
51146;SDS011;37207;53.060;18.726;2023-07-24T06:03:03;10.60;;;6.90;;
51146;SDS011;37207;53.060;18.726;2023-07-24T06:05:30;6.60;;;5.90;;
51146;SDS011;37207;53.060;18.726;2023-07-24T06:07:56;9.30;;;5.90;;
51146;SDS011;37207;53.060;18.726;2023-07-24T06:10:23;8.70;;;5.70;;
51146;SDS011;37207;53.060;18.726;2023-07-24T06:12:50;6.50;;;5.90;;
51146;SDS011;37207;53.060;18.726;2023-07-24T06:15:16;6.80;;;6.10;;
51146;SDS011;37207;53.060;18.726;2023-07-24T06:17:43;6.90;;;5.50;;
51146;SDS011;37207;53.060;18.726;2023-07-24T06:20:09;8.00;;;6.90;;
51146;SDS011;37207;53.060;18.726;2023-07-24T06:22:36;8.30;;;6.50;;
51146;SDS011;37207;53.060;18.726;2023-07-24T06:25:03;8.10;;;7.30;;
51146;SDS011;37207;53.060;18.726;2023-07-24T06:27:29;7.20;;;6.50;;
51146;SDS011;37207;53.060;18.726;2023-07-24T06:29:56;7.60;;;6.60;;
51146;SDS011;37207;53.060;18.726;2023-07-24T06:32:22;7.50;;;6.90;;
51146;SDS011;37207;53.060;18.726;2023-07-24T06:34:49;9.20;;;7.00;;
51146;SDS011;37207;53.060;18.726;2023-07-24T06:37:15;9.60;;;6.90;;
51146;SDS011;37207;53.060;18.726;2023-07-24T06:39:42;7.50;;;6.70;;
51146;SDS011;37207;53.060;18.726;2023-07-24T06:42:09;7.30;;;6.70;;
51146;SDS011;37207;53.060;18.726;2023-07-24T06:44:36;7.70;;;7.00;;
51146;SDS011;37207;53.060;18.726;2023-07-24T06:47:02;8.00;;;7.30;;
51146;SDS011;37207;53.060;18.726;2023-07-24T06:49:29;10.50;;;7.90;;
51146;SDS011;37207;53.060;18.726;2023-07-24T06:51:56;9.80;;;7.50;;
51146;SDS011;37207;53.060;18.726;2023-07-24T06:54:22;8.30;;;7.50;;
51146;SDS011;37207;53.060;18.726;2023-07-24T06:56:49;10.00;;;7.60;;
51146;SDS011;37207;53.060;18.726;2023-07-24T06:59:15;15.50;;;8.80;;
51146;SDS011;37207;53.060;18.726;2023-07-24T07:01:42;11.00;;;8.00;;
51146;SDS011;37207;53.060;18.726;2023-07-24T07:04:08;8.30;;;7.50;;
51146;SDS011;37207;53.060;18.726;2023-07-24T07:06:35;7.90;;;7.30;;
51146;SDS011;37207;53.060;18.726;2023-07-24T07:09:01;10.20;;;9.30;;
51146;SDS011;37207;53.060;18.726;2023-07-24T07:11:28;13.50;;;11.00;;
51146;SDS011;37207;53.060;18.726;2023-07-24T07:13:54;10.30;;;9.50;;
51146;SDS011;37207;53.060;18.726;2023-07-24T07:16:21;10.70;;;8.80;;
51146;SDS011;37207;53.060;18.726;2023-07-24T07:18:47;10.10;;;9.10;;
51146;SDS011;37207;53.060;18.726;2023-07-24T07:21:14;10.40;;;8.70;;
51146;SDS011;37207;53.060;18.726;2023-07-24T07:23:41;9.80;;;8.90;;
51146;SDS011;37207;53.060;18.726;2023-07-24T07:26:07;8.90;;;8.20;;
51146;SDS011;37207;53.060;18.726;2023-07-24T07:28:34;8.00;;;7.50;;
51146;SDS011;37207;53.060;18.726;2023-07-24T07:31:00;8.70;;;7.00;;
51146;SDS011;37207;53.060;18.726;2023-07-24T07:33:27;7.50;;;6.90;;
51146;SDS011;37207;53.060;18.726;2023-07-24T07:35:54;10.00;;;6.90;;
51146;SDS011;37207;53.060;18.726;2023-07-24T07:38:20;7.60;;;6.90;;
51146;SDS011;37207;53.060;18.726;2023-07-24T07:40:48;9.00;;;8.20;;
51146;SDS011;37207;53.060;18.726;2023-07-24T07:43:15;10.20;;;7.10;;
51146;SDS011;37207;53.060;18.726;2023-07-24T07:45:41;6.70;;;6.00;;
51146;SDS011;37207;53.060;18.726;2023-07-24T07:48:08;6.70;;;6.10;;
51146;SDS011;37207;53.060;18.726;2023-07-24T07:50:34;6.00;;;5.20;;
51146;SDS011;37207;53.060;18.726;2023-07-24T07:53:01;8.80;;;7.90;;
51146;SDS011;37207;53.060;18.726;2023-07-24T07:55:27;6.90;;;6.40;;
51146;SDS011;37207;53.060;18.726;2023-07-24T07:57:54;8.00;;;5.90;;
51146;SDS011;37207;53.060;18.726;2023-07-24T08:00:20;6.70;;;5.80;;
51146;SDS011;37207;53.060;18.726;2023-07-24T08:02:48;6.10;;;5.40;;
51146;SDS011;37207;53.060;18.726;2023-07-24T08:05:14;7.20;;;5.30;;
51146;SDS011;37207;53.060;18.726;2023-07-24T08:07:41;7.70;;;5.80;;
51146;SDS011;37207;53.060;18.726;2023-07-24T08:10:08;7.10;;;6.40;;
51146;SDS011;37207;53.060;18.726;2023-07-24T08:12:35;5.90;;;5.50;;
51146;SDS011;37207;53.060;18.726;2023-07-24T08:15:01;6.30;;;5.70;;
51146;SDS011;37207;53.060;18.726;2023-07-24T08:17:28;6.30;;;5.80;;
51146;SDS011;37207;53.060;18.726;2023-07-24T08:19:56;8.60;;;5.40;;
51146;SDS011;37207;53.060;18.726;2023-07-24T08:22:22;5.50;;;5.10;;
51146;SDS011;37207;53.060;18.726;2023-07-24T08:24:49;4.80;;;4.40;;
51146;SDS011;37207;53.060;18.726;2023-07-24T08:27:17;6.20;;;5.10;;
51146;SDS011;37207;53.060;18.726;2023-07-24T08:29:44;4.80;;;4.50;;
51146;SDS011;37207;53.060;18.726;2023-07-24T08:32:11;4.60;;;4.10;;
51146;SDS011;37207;53.060;18.726;2023-07-24T08:34:37;3.90;;;3.60;;
51146;SDS011;37207;53.060;18.726;2023-07-24T08:37:04;5.40;;;4.00;;
51146;SDS011;37207;53.060;18.726;2023-07-24T08:39:31;3.80;;;3.50;;
51146;SDS011;37207;53.060;18.726;2023-07-24T08:41:58;4.50;;;4.20;;
51146;SDS011;37207;53.060;18.726;2023-07-24T08:44:25;4.00;;;3.70;;
51146;SDS011;37207;53.060;18.726;2023-07-24T08:46:58;7.80;;;6.40;;
51146;SDS011;37207;53.060;18.726;2023-07-24T08:49:26;8.80;;;4.60;;
51146;SDS011;37207;53.060;18.726;2023-07-24T08:51:56;4.00;;;3.70;;
51146;SDS011;37207;53.060;18.726;2023-07-24T08:54:24;4.00;;;3.50;;
51146;SDS011;37207;53.060;18.726;2023-07-24T08:56:53;3.70;;;3.40;;
51146;SDS011;37207;53.060;18.726;2023-07-24T08:59:20;3.80;;;3.50;;
51146;SDS011;37207;53.060;18.726;2023-07-24T09:01:47;10.40;;;3.10;;
51146;SDS011;37207;53.060;18.726;2023-07-24T09:04:13;6.10;;;3.80;;
51146;SDS011;37207;53.060;18.726;2023-07-24T09:06:40;3.90;;;3.60;;
51146;SDS011;37207;53.060;18.726;2023-07-24T09:09:14;3.50;;;3.30;;
51146;SDS011;37207;53.060;18.726;2023-07-24T09:11:45;3.60;;;3.30;;
51146;SDS011;37207;53.060;18.726;2023-07-24T09:14:22;4.50;;;3.20;;
51146;SDS011;37207;53.060;18.726;2023-07-24T09:17:03;4.90;;;3.20;;
51146;SDS011;37207;53.060;18.726;2023-07-24T09:19:33;2.60;;;2.40;;
51146;SDS011;37207;53.060;18.726;2023-07-24T09:22:10;4.90;;;2.60;;
51146;SDS011;37207;53.060;18.726;2023-07-24T09:24:48;4.20;;;2.30;;
51146;SDS011;37207;53.060;18.726;2023-07-24T09:27:16;3.60;;;2.30;;
51146;SDS011;37207;53.060;18.726;2023-07-24T09:29:42;3.00;;;2.40;;
51146;SDS011;37207;53.060;18.726;2023-07-24T09:32:22;4.20;;;2.50;;
51146;SDS011;37207;53.060;18.726;2023-07-24T09:34:50;2.80;;;2.20;;
51146;SDS011;37207;53.060;18.726;2023-07-24T09:39:51;3.40;;;2.40;;
51146;SDS011;37207;53.060;18.726;2023-07-24T09:42:26;6.70;;;3.00;;
51146;SDS011;37207;53.060;18.726;2023-07-24T09:44:54;2.90;;;2.70;;
51146;SDS011;37207;53.060;18.726;2023-07-24T09:47:21;3.70;;;2.70;;
51146;SDS011;37207;53.060;18.726;2023-07-24T09:49:47;3.00;;;2.60;;
51146;SDS011;37207;53.060;18.726;2023-07-24T09:52:14;5.20;;;2.80;;
51146;SDS011;37207;53.060;18.726;2023-07-24T09:54:47;4.80;;;2.70;;
51146;SDS011;37207;53.060;18.726;2023-07-24T09:57:31;2.30;;;2.10;;
51146;SDS011;37207;53.060;18.726;2023-07-24T09:59:58;2.80;;;2.60;;
51146;SDS011;37207;53.060;18.726;2023-07-24T10:02:29;3.10;;;2.80;;
51146;SDS011;37207;53.060;18.726;2023-07-24T10:04:59;5.30;;;3.10;;
51146;SDS011;37207;53.060;18.726;2023-07-24T10:07:27;10.80;;;3.20;;
51146;SDS011;37207;53.060;18.726;2023-07-24T10:09:54;9.20;;;2.90;;
51146;SDS011;37207;53.060;18.726;2023-07-24T10:12:21;4.00;;;2.50;;
51146;SDS011;37207;53.060;18.726;2023-07-24T10:14:50;3.30;;;3.00;;
51146;SDS011;37207;53.060;18.726;2023-07-24T10:20:04;6.10;;;2.40;;
51146;SDS011;37207;53.060;18.726;2023-07-24T10:22:33;2.90;;;2.30;;
51146;SDS011;37207;53.060;18.726;2023-07-24T10:24:59;6.20;;;3.00;;
51146;SDS011;37207;53.060;18.726;2023-07-24T10:27:26;13.20;;;3.10;;
51146;SDS011;37207;53.060;18.726;2023-07-24T10:30:01;21.60;;;5.90;;
51146;SDS011;37207;53.060;18.726;2023-07-24T10:32:29;2.90;;;2.50;;
51146;SDS011;37207;53.060;18.726;2023-07-24T10:35:05;7.00;;;3.10;;
51146;SDS011;37207;53.060;18.726;2023-07-24T10:37:36;8.90;;;2.90;;
51146;SDS011;37207;53.060;18.726;2023-07-24T10:40:04;5.70;;;4.60;;
51146;SDS011;37207;53.060;18.726;2023-07-24T10:42:35;4.20;;;3.20;;
51146;SDS011;37207;53.060;18.726;2023-07-24T10:45:04;2.90;;;2.60;;
51146;SDS011;37207;53.060;18.726;2023-07-24T10:47:34;3.20;;;3.00;;
51146;SDS011;37207;53.060;18.726;2023-07-24T10:50:01;4.10;;;2.90;;
51146;SDS011;37207;53.060;18.726;2023-07-24T10:52:30;3.70;;;3.20;;
51146;SDS011;37207;53.060;18.726;2023-07-24T10:54:59;6.00;;;3.10;;
51146;SDS011;37207;53.060;18.726;2023-07-24T10:57:27;3.10;;;2.80;;
51146;SDS011;37207;53.060;18.726;2023-07-24T10:59:54;2.90;;;2.70;;
51146;SDS011;37207;53.060;18.726;2023-07-24T11:02:20;8.10;;;4.10;;
51146;SDS011;37207;53.060;18.726;2023-07-24T11:04:47;6.00;;;2.90;;
51146;SDS011;37207;53.060;18.726;2023-07-24T11:07:14;3.50;;;3.20;;
51146;SDS011;37207;53.060;18.726;2023-07-24T11:09:41;3.30;;;3.00;;
51146;SDS011;37207;53.060;18.726;2023-07-24T11:12:12;2.60;;;2.40;;
51146;SDS011;37207;53.060;18.726;2023-07-24T11:14:59;3.60;;;3.30;;
51146;SDS011;37207;53.060;18.726;2023-07-24T11:17:35;5.00;;;4.60;;
51146;SDS011;37207;53.060;18.726;2023-07-24T11:22:33;8.60;;;3.70;;
51146;SDS011;37207;53.060;18.726;2023-07-24T11:25:00;3.90;;;3.60;;
51146;SDS011;37207;53.060;18.726;2023-07-24T11:27:27;4.50;;;2.20;;
51146;SDS011;37207;53.060;18.726;2023-07-24T11:29:54;7.20;;;2.70;;
51146;SDS011;37207;53.060;18.726;2023-07-24T11:32:21;7.70;;;2.80;;
51146;SDS011;37207;53.060;18.726;2023-07-24T11:34:48;2.60;;;2.40;;
51146;SDS011;37207;53.060;18.726;2023-07-24T11:37:17;7.90;;;3.80;;
51146;SDS011;37207;53.060;18.726;2023-07-24T11:39:56;3.50;;;3.20;;
51146;SDS011;37207;53.060;18.726;2023-07-24T11:42:37;4.40;;;3.00;;
51146;SDS011;37207;53.060;18.726;2023-07-24T11:45:05;2.90;;;2.70;;
51146;SDS011;37207;53.060;18.726;2023-07-24T11:47:46;5.30;;;4.10;;
51146;SDS011;37207;53.060;18.726;2023-07-24T11:50:15;6.60;;;4.00;;
51146;SDS011;37207;53.060;18.726;2023-07-24T11:52:50;3.40;;;2.00;;
51146;SDS011;37207;53.060;18.726;2023-07-24T11:55:18;4.30;;;2.60;;
51146;SDS011;37207;53.060;18.726;2023-07-24T11:57:58;2.90;;;2.60;;
51146;SDS011;37207;53.060;18.726;2023-07-24T12:00:26;4.20;;;2.80;;
51146;SDS011;37207;53.060;18.726;2023-07-24T12:02:58;5.50;;;2.50;;
51146;SDS011;37207;53.060;18.726;2023-07-24T12:05:26;6.00;;;2.80;;
51146;SDS011;37207;53.060;18.726;2023-07-24T12:07:53;3.30;;;2.30;;
51146;SDS011;37207;53.060;18.726;2023-07-24T12:10:27;7.50;;;2.10;;
51146;SDS011;37207;53.060;18.726;2023-07-24T12:12:54;3.30;;;2.30;;
51146;SDS011;37207;53.060;18.726;2023-07-24T12:15:25;4.80;;;2.50;;
51146;SDS011;37207;53.060;18.726;2023-07-24T12:17:53;3.90;;;2.40;;
51146;SDS011;37207;53.060;18.726;2023-07-24T12:20:19;3.00;;;2.30;;
51146;SDS011;37207;53.060;18.726;2023-07-24T12:22:46;4.20;;;2.20;;
51146;SDS011;37207;53.060;18.726;2023-07-24T12:25:13;2.40;;;2.30;;
51146;SDS011;37207;53.060;18.726;2023-07-24T12:27:40;3.60;;;2.20;;
51146;SDS011;37207;53.060;18.726;2023-07-24T12:32:35;2.60;;;2.40;;
51146;SDS011;37207;53.060;18.726;2023-07-24T12:35:01;6.10;;;2.70;;
51146;SDS011;37207;53.060;18.726;2023-07-24T12:37:28;2.60;;;2.40;;
51146;SDS011;37207;53.060;18.726;2023-07-24T12:39:55;2.00;;;1.90;;
51146;SDS011;37207;53.060;18.726;2023-07-24T12:42:21;3.10;;;2.50;;
51146;SDS011;37207;53.060;18.726;2023-07-24T12:44:48;5.00;;;2.50;;
51146;SDS011;37207;53.060;18.726;2023-07-24T12:47:15;5.20;;;2.70;;
51146;SDS011;37207;53.060;18.726;2023-07-24T12:49:41;3.40;;;2.40;;
51146;SDS011;37207;53.060;18.726;2023-07-24T12:52:08;2.50;;;2.30;;
51146;SDS011;37207;53.060;18.726;2023-07-24T12:54:34;2.60;;;2.40;;
51146;SDS011;37207;53.060;18.726;2023-07-24T12:57:01;2.90;;;2.70;;
51146;SDS011;37207;53.060;18.726;2023-07-24T12:59:31;2.90;;;2.50;;
51146;SDS011;37207;53.060;18.726;2023-07-24T13:01:57;2.50;;;2.20;;
51146;SDS011;37207;53.060;18.726;2023-07-24T13:04:24;4.80;;;2.70;;
51146;SDS011;37207;53.060;18.726;2023-07-24T13:06:50;3.10;;;2.70;;
51146;SDS011;37207;53.060;18.726;2023-07-24T13:09:17;3.90;;;2.70;;
51146;SDS011;37207;53.060;18.726;2023-07-24T13:11:45;4.00;;;3.10;;
51146;SDS011;37207;53.060;18.726;2023-07-24T13:14:14;3.00;;;2.40;;
51146;SDS011;37207;53.060;18.726;2023-07-24T13:16:41;5.70;;;3.30;;
51146;SDS011;37207;53.060;18.726;2023-07-24T13:19:08;3.20;;;2.80;;
51146;SDS011;37207;53.060;18.726;2023-07-24T13:21:34;10.30;;;3.80;;
51146;SDS011;37207;53.060;18.726;2023-07-24T13:24:01;11.70;;;3.50;;
51146;SDS011;37207;53.060;18.726;2023-07-24T13:26:29;3.10;;;2.70;;
51146;SDS011;37207;53.060;18.726;2023-07-24T13:28:56;3.40;;;2.90;;
51146;SDS011;37207;53.060;18.726;2023-07-24T13:31:23;4.50;;;2.50;;
51146;SDS011;37207;53.060;18.726;2023-07-24T13:33:50;2.60;;;2.40;;
51146;SDS011;37207;53.060;18.726;2023-07-24T13:36:18;4.00;;;2.50;;
51146;SDS011;37207;53.060;18.726;2023-07-24T13:38:45;3.60;;;2.70;;
51146;SDS011;37207;53.060;18.726;2023-07-24T13:41:14;2.90;;;2.60;;
51146;SDS011;37207;53.060;18.726;2023-07-24T13:43:40;2.90;;;2.40;;
51146;SDS011;37207;53.060;18.726;2023-07-24T13:46:08;3.20;;;2.30;;
51146;SDS011;37207;53.060;18.726;2023-07-24T13:48:35;2.20;;;2.10;;
51146;SDS011;37207;53.060;18.726;2023-07-24T13:51:02;2.30;;;2.20;;
51146;SDS011;37207;53.060;18.726;2023-07-24T13:53:29;2.40;;;2.30;;
51146;SDS011;37207;53.060;18.726;2023-07-24T13:55:55;3.90;;;2.70;;
51146;SDS011;37207;53.060;18.726;2023-07-24T13:58:25;4.00;;;2.60;;
51146;SDS011;37207;53.060;18.726;2023-07-24T14:00:51;4.90;;;2.70;;
51146;SDS011;37207;53.060;18.726;2023-07-24T14:03:18;3.70;;;2.50;;
51146;SDS011;37207;53.060;18.726;2023-07-24T14:05:44;2.60;;;2.40;;
51146;SDS011;37207;53.060;18.726;2023-07-24T14:08:11;2.30;;;2.20;;
51146;SDS011;37207;53.060;18.726;2023-07-24T14:10:38;4.40;;;2.00;;
51146;SDS011;37207;53.060;18.726;2023-07-24T14:13:04;4.50;;;2.80;;
51146;SDS011;37207;53.060;18.726;2023-07-24T14:15:31;3.50;;;2.60;;
51146;SDS011;37207;53.060;18.726;2023-07-24T14:17:57;2.50;;;2.30;;
51146;SDS011;37207;53.060;18.726;2023-07-24T14:20:24;4.50;;;2.60;;
51146;SDS011;37207;53.060;18.726;2023-07-24T14:22:51;3.20;;;2.50;;
51146;SDS011;37207;53.060;18.726;2023-07-24T14:25:17;3.20;;;2.50;;
51146;SDS011;37207;53.060;18.726;2023-07-24T14:27:44;6.20;;;2.60;;
51146;SDS011;37207;53.060;18.726;2023-07-24T14:30:10;3.20;;;3.00;;
51146;SDS011;37207;53.060;18.726;2023-07-24T14:32:37;5.10;;;2.60;;
51146;SDS011;37207;53.060;18.726;2023-07-24T14:35:04;3.00;;;2.80;;
51146;SDS011;37207;53.060;18.726;2023-07-24T14:37:31;2.90;;;2.70;;
51146;SDS011;37207;53.060;18.726;2023-07-24T14:39:57;2.60;;;2.40;;
51146;SDS011;37207;53.060;18.726;2023-07-24T14:42:24;5.30;;;2.70;;
51146;SDS011;37207;53.060;18.726;2023-07-24T14:44:50;2.90;;;2.60;;
51146;SDS011;37207;53.060;18.726;2023-07-24T14:47:17;6.40;;;2.50;;
51146;SDS011;37207;53.060;18.726;2023-07-24T14:49:43;4.30;;;3.10;;
51146;SDS011;37207;53.060;18.726;2023-07-24T14:52:10;3.70;;;3.30;;
51146;SDS011;37207;53.060;18.726;2023-07-24T14:54:36;3.40;;;3.20;;